createdAt,value
2023-04-27T00:01:53.502Z,68.23
2023-04-27T00:04:20.252Z,68.83
2023-04-27T00:06:46.944Z,67.40
2023-04-27T00:09:13.797Z,68.28
2023-04-27T00:11:40.612Z,68.01
2023-04-27T00:14:07.310Z,68.26
2023-04-27T00:16:34.026Z,68.94
2023-04-27T00:19:00.684Z,68.56
2023-04-27T00:21:27.390Z,68.77
2023-04-27T00:23:57.228Z,68.93
2023-04-27T00:26:23.918Z,69.82
2023-04-27T00:28:50.575Z,69.65
2023-04-27T00:31:17.233Z,69.88
2023-04-27T00:33:44.045Z,69.99
2023-04-27T00:36:10.644Z,71.60
2023-04-27T00:38:37.393Z,72.01
2023-04-27T00:41:05.908Z,72.68
2023-04-27T00:43:33.402Z,70.96
2023-04-27T00:46:00.799Z,70.97
2023-04-27T00:48:28.226Z,72.02
2023-04-27T00:50:55.194Z,72.20
2023-04-27T00:53:22.446Z,71.73
2023-04-27T00:55:49.089Z,70.25
2023-04-27T00:58:15.871Z,69.65
2023-04-27T01:00:42.739Z,71.32
2023-04-27T01:03:09.849Z,70.36
2023-04-27T01:05:37.574Z,69.29
2023-04-27T01:08:04.838Z,69.55
2023-04-27T01:10:31.544Z,70.33
2023-04-27T01:12:58.337Z,69.50
2023-04-27T01:15:25.166Z,71.05
2023-04-27T01:17:58.251Z,71.79
2023-04-27T01:20:25.224Z,72.26
2023-04-27T01:22:53.601Z,73.39
2023-04-27T01:25:20.245Z,72.98
2023-04-27T01:27:46.913Z,71.54
2023-04-27T01:30:13.669Z,71.61
2023-04-27T01:32:40.341Z,72.21
2023-04-27T01:35:08.156Z,72.85
2023-04-27T01:37:35.218Z,73.05
2023-04-27T01:40:01.966Z,74.39
2023-04-27T01:42:28.597Z,73.64
2023-04-27T01:44:55.279Z,73.07
2023-04-27T01:47:21.922Z,72.52
2023-04-27T01:49:48.576Z,72.14
2023-04-27T01:52:15.375Z,72.99
2023-04-27T01:54:41.961Z,72.60
2023-04-27T01:57:08.697Z,72.48
2023-04-27T01:59:35.356Z,72.25
2023-04-27T02:02:02.162Z,72.84
2023-04-27T02:04:29.114Z,73.21
2023-04-27T02:06:55.879Z,74.04
2023-04-27T02:09:22.524Z,73.36
2023-04-27T02:11:49.246Z,73.47
2023-04-27T02:14:15.884Z,72.36
2023-04-27T02:16:42.671Z,72.38
2023-04-27T02:19:09.533Z,74.11
2023-04-27T02:21:36.243Z,73.29
2023-04-27T02:24:03.081Z,73.97
2023-04-27T02:26:29.728Z,72.61
2023-04-27T02:28:56.369Z,74.81
2023-04-27T02:31:23.316Z,75.39
2023-04-27T02:33:50.208Z,74.31
2023-04-27T02:36:17.228Z,75.36
2023-04-27T02:38:44.029Z,74.63
2023-04-27T02:41:10.717Z,74.83
2023-04-27T02:43:37.497Z,76.15
2023-04-27T02:46:08.186Z,75.23
2023-04-27T02:48:34.921Z,76.15
2023-04-27T02:51:05.210Z,76.29
2023-04-27T02:53:31.899Z,75.52
2023-04-27T02:55:58.534Z,76.32
2023-04-27T02:58:25.452Z,76.93
2023-04-27T03:00:56.546Z,75.69
2023-04-27T03:03:24.556Z,77.64
2023-04-27T03:05:51.307Z,76.92
2023-04-27T03:08:17.966Z,78.20
2023-04-27T03:10:44.608Z,76.98
2023-04-27T03:13:11.419Z,78.21
2023-04-27T03:15:38.067Z,77.69
2023-04-27T03:18:05.067Z,78.98
2023-04-27T03:20:31.763Z,78.35
2023-04-27T03:22:58.505Z,78.87
2023-04-27T03:25:25.156Z,78.99
2023-04-27T03:27:54.053Z,78.44
2023-04-27T03:30:20.761Z,76.82
2023-04-27T03:32:47.865Z,76.73
2023-04-27T03:35:14.715Z,77.71
2023-04-27T03:37:41.509Z,77.97
2023-04-27T03:40:08.797Z,76.79
2023-04-27T03:42:35.440Z,78.79
2023-04-27T03:45:02.118Z,77.37
2023-04-27T03:47:28.783Z,78.54
2023-04-27T03:49:55.502Z,79.10
2023-04-27T03:52:22.143Z,79.16
2023-04-27T03:54:48.840Z,79.07
2023-04-27T03:57:15.666Z,80.01
2023-04-27T03:59:42.300Z,80.69
2023-04-27T04:02:09.086Z,80.10
2023-04-27T04:04:35.876Z,80.76
2023-04-27T04:07:02.671Z,80.97
2023-04-27T04:09:29.275Z,80.11
2023-04-27T04:11:55.887Z,81.86
2023-04-27T04:14:22.541Z,83.76
2023-04-27T04:16:49.433Z,84.10
2023-04-27T04:19:16.166Z,83.62
2023-04-27T04:21:42.973Z,83.37
2023-04-27T04:24:09.585Z,83.14
2023-04-27T04:26:36.225Z,81.80
2023-04-27T04:29:03.023Z,80.34
2023-04-27T04:31:29.808Z,80.85
2023-04-27T04:33:56.601Z,81.23
2023-04-27T04:36:23.244Z,80.78
2023-04-27T04:38:49.880Z,80.51
2023-04-27T04:41:16.621Z,80.34
2023-04-27T04:43:43.260Z,79.21
2023-04-27T04:46:09.893Z,79.48
2023-04-27T04:48:36.529Z,80.56
2023-04-27T04:51:06.154Z,79.42
2023-04-27T04:53:32.869Z,80.11
2023-04-27T04:56:09.476Z,80.59
2023-04-27T04:58:36.221Z,80.56
2023-04-27T05:01:02.831Z,81.90
2023-04-27T05:03:29.523Z,81.03
2023-04-27T05:05:56.301Z,82.89
2023-04-27T05:08:22.974Z,81.50
2023-04-27T05:10:50.974Z,81.99
2023-04-27T05:13:17.648Z,81.33
2023-04-27T05:15:44.338Z,82.90
2023-04-27T05:18:10.981Z,80.88
2023-04-27T05:20:38.466Z,79.96
2023-04-27T05:23:05.225Z,80.49
2023-04-27T05:25:32.572Z,81.28
2023-04-27T05:27:59.355Z,80.78
2023-04-27T05:30:26.171Z,77.57
2023-04-27T05:32:53.063Z,76.40
2023-04-27T05:35:19.702Z,74.28
2023-04-27T05:37:46.439Z,75.06
2023-04-27T05:40:15.205Z,72.33
2023-04-27T05:42:41.917Z,73.11
2023-04-27T05:45:09.045Z,74.21
2023-04-27T05:47:35.696Z,73.46
2023-04-27T05:50:02.367Z,75.50
2023-04-27T05:52:29.202Z,71.52
2023-04-27T05:54:55.841Z,71.94
2023-04-27T05:57:22.626Z,72.58
2023-04-27T05:59:49.230Z,71.07
2023-04-27T06:02:16.421Z,68.29
2023-04-27T06:04:43.470Z,68.45
2023-04-27T06:07:14.255Z,67.49
2023-04-27T06:09:41.648Z,68.51
2023-04-27T06:12:09.089Z,66.48
2023-04-27T06:14:37.230Z,66.16
2023-04-27T06:17:04.488Z,64.57
2023-04-27T06:19:31.056Z,62.21
2023-04-27T06:21:57.712Z,60.12
2023-04-27T06:24:24.461Z,60.80
2023-04-27T06:26:51.098Z,60.67
2023-04-27T06:29:17.841Z,58.55
2023-04-27T06:31:44.497Z,57.87
2023-04-27T06:34:11.363Z,57.69
2023-04-27T06:36:38.007Z,56.17
2023-04-27T06:39:04.609Z,54.70
2023-04-27T06:41:31.218Z,54.32
2023-04-27T06:43:59.083Z,56.16
2023-04-27T06:46:25.934Z,57.01
2023-04-27T06:48:52.650Z,58.26
2023-04-27T06:51:19.361Z,53.74
2023-04-27T06:53:45.970Z,52.04
2023-04-27T06:56:12.619Z,56.03
2023-04-27T06:58:39.272Z,54.24
2023-04-27T07:01:08.621Z,49.91
2023-04-27T07:03:35.867Z,51.24
2023-04-27T07:06:02.683Z,54.12
2023-04-27T07:08:29.409Z,51.01
2023-04-27T07:10:56.070Z,54.01
2023-04-27T07:13:22.828Z,53.70
2023-04-27T07:15:54.931Z,51.87
2023-04-27T07:18:21.533Z,53.49
2023-04-27T07:20:49.308Z,53.92
2023-04-27T07:23:15.896Z,52.12
2023-04-27T07:25:42.518Z,52.19
2023-04-27T07:28:09.122Z,50.62
2023-04-27T07:30:35.705Z,53.20
2023-04-27T07:33:02.907Z,51.88
2023-04-27T07:35:29.603Z,48.18
2023-04-27T07:37:56.252Z,50.69
2023-04-27T07:40:22.876Z,52.53
2023-04-27T07:42:49.698Z,51.82
2023-04-27T07:45:16.393Z,49.91
2023-04-27T07:47:43.163Z,46.65
2023-04-27T07:50:10.587Z,48.75
2023-04-27T07:52:37.556Z,49.07
2023-04-27T07:55:04.420Z,42.07
2023-04-27T07:57:31.140Z,45.51
2023-04-27T07:59:57.986Z,44.01
2023-04-27T08:02:26.684Z,42.06
2023-04-27T08:04:53.926Z,44.10
2023-04-27T08:07:20.740Z,41.58
2023-04-27T08:09:51.229Z,43.12
2023-04-27T08:12:17.968Z,42.54
2023-04-27T08:14:44.657Z,43.30
2023-04-27T08:17:11.331Z,43.05
2023-04-27T08:19:38.266Z,44.05
2023-04-27T08:22:04.938Z,42.16
2023-04-27T08:24:31.592Z,43.16
2023-04-27T08:26:58.198Z,43.82
2023-04-27T08:29:28.344Z,41.18
2023-04-27T08:31:58.668Z,37.50
2023-04-27T08:34:25.496Z,39.38
2023-04-27T08:36:52.639Z,37.56
2023-04-27T08:39:19.295Z,37.39
2023-04-27T08:41:46.491Z,39.20
2023-04-27T08:44:13.288Z,38.19
2023-04-27T08:46:41.299Z,38.00
2023-04-27T08:49:08.144Z,39.10
2023-04-27T08:51:34.982Z,37.43
2023-04-27T08:54:02.523Z,38.78
2023-04-27T08:56:30.522Z,38.72
2023-04-27T08:58:58.188Z,38.74
2023-04-27T09:01:25.836Z,38.71
2023-04-27T09:04:00.595Z,41.32
2023-04-27T09:06:34.484Z,40.89
2023-04-27T09:09:02.682Z,35.68
2023-04-27T09:11:30.380Z,38.74
2023-04-27T09:13:58.227Z,35.34
2023-04-27T09:16:26.700Z,38.88
2023-04-27T09:18:55.533Z,36.31
2023-04-27T09:21:26.924Z,36.79
2023-04-27T09:23:54.589Z,38.54
2023-04-27T09:26:25.559Z,37.36
2023-04-27T09:28:54.134Z,38.32
2023-04-27T09:31:21.831Z,37.41
2023-04-27T09:33:54.978Z,37.64
2023-04-27T09:36:22.885Z,38.64
2023-04-27T09:38:51.748Z,37.52
2023-04-27T09:41:19.420Z,37.47
2023-04-27T09:43:46.883Z,36.78
2023-04-27T09:46:15.050Z,36.17
2023-04-27T09:48:42.692Z,38.99
2023-04-27T09:51:09.453Z,36.99
2023-04-27T09:53:49.766Z,38.43
2023-04-27T09:56:46.950Z,37.88
2023-04-27T09:59:22.756Z,38.07
2023-04-27T10:01:52.554Z,35.04
2023-04-27T10:04:37.547Z,38.32
2023-04-27T10:07:12.296Z,37.02
2023-04-27T10:09:50.665Z,34.54
2023-04-27T10:12:26.946Z,35.41
2023-04-27T10:14:59.188Z,36.57
2023-04-27T10:17:31.407Z,36.48
2023-04-27T10:20:03.980Z,37.47
2023-04-27T10:22:44.441Z,37.07
2023-04-27T10:25:14.426Z,35.91
2023-04-27T10:27:41.142Z,37.23
2023-04-27T10:30:12.401Z,40.06
2023-04-27T10:32:57.073Z,36.63
2023-04-27T10:35:36.219Z,36.81
2023-04-27T10:38:10.602Z,37.39
2023-04-27T10:40:38.468Z,35.85
2023-04-27T10:43:29.256Z,37.24
2023-04-27T10:46:07.082Z,34.28
2023-04-27T10:48:33.699Z,35.08
2023-04-27T10:51:01.782Z,37.22
2023-04-27T10:53:34.302Z,36.07
2023-04-27T10:56:01.097Z,37.96
2023-04-27T10:58:37.744Z,35.62
2023-04-27T11:01:11.954Z,33.44
2023-04-27T11:03:38.952Z,35.12
2023-04-27T11:06:06.382Z,35.77
2023-04-27T11:08:32.990Z,35.80
2023-04-27T11:10:59.617Z,36.05
2023-04-27T11:13:26.967Z,34.13
2023-04-27T11:15:58.587Z,32.23
2023-04-27T11:18:27.397Z,35.33
2023-04-27T11:20:55.737Z,35.10
2023-04-27T11:23:31.762Z,36.08
2023-04-27T11:25:58.613Z,36.95
2023-04-27T11:28:25.292Z,34.97
2023-04-27T11:30:58.882Z,34.63
2023-04-27T11:33:26.506Z,33.14
2023-04-27T11:35:53.870Z,33.76
2023-04-27T11:38:20.796Z,34.37
2023-04-27T11:40:59.222Z,34.71
2023-04-27T11:43:26.833Z,34.92
2023-04-27T11:45:53.574Z,34.32
2023-04-27T11:48:20.315Z,37.55
2023-04-27T11:50:50.618Z,36.56
2023-04-27T11:53:18.847Z,32.38
2023-04-27T11:55:52.519Z,36.18
2023-04-27T11:58:19.182Z,34.38
2023-04-27T12:00:45.948Z,34.99
2023-04-27T12:03:13.014Z,34.94
2023-04-27T12:05:50.918Z,34.20
2023-04-27T12:08:18.117Z,35.14
2023-04-27T12:10:45.474Z,33.87
2023-04-27T12:13:12.733Z,33.70
2023-04-27T12:15:39.465Z,32.88
2023-04-27T12:18:07.014Z,33.32
2023-04-27T12:20:34.527Z,32.24
2023-04-27T12:23:01.594Z,33.98
2023-04-27T12:25:28.603Z,34.18
2023-04-27T12:27:55.549Z,34.88
2023-04-27T12:30:24.339Z,35.86
2023-04-27T12:32:51.170Z,34.91
2023-04-27T12:35:17.870Z,34.67
2023-04-27T12:37:44.725Z,34.22
2023-04-27T12:40:11.889Z,33.13
2023-04-27T12:42:38.654Z,33.79
2023-04-27T12:45:05.654Z,34.40
2023-04-27T12:47:53.994Z,32.87
2023-04-27T12:50:18.915Z,33.34
2023-04-27T12:52:45.531Z,35.90
2023-04-27T12:55:21.482Z,34.36
2023-04-27T12:57:58.588Z,33.61
2023-04-27T13:00:25.326Z,31.31
2023-04-27T13:02:53.116Z,34.18
2023-04-27T13:05:20.541Z,34.46
2023-04-27T13:07:47.228Z,33.49
2023-04-27T13:10:14.160Z,34.48
2023-04-27T13:12:40.899Z,37.85
2023-04-27T13:15:08.378Z,34.30
2023-04-27T13:17:35.029Z,33.55
2023-04-27T13:20:01.675Z,32.72
2023-04-27T13:22:28.688Z,32.55
2023-04-27T13:24:56.500Z,32.71
2023-04-27T13:27:23.131Z,35.53
2023-04-27T13:29:49.786Z,32.15
2023-04-27T13:32:16.512Z,32.13
2023-04-27T13:34:43.155Z,34.03
2023-04-27T13:37:10.044Z,33.41
2023-04-27T13:39:36.747Z,32.67
2023-04-27T13:42:03.897Z,31.28
2023-04-27T13:44:30.684Z,33.89
2023-04-27T13:46:57.453Z,33.53
2023-04-27T13:49:24.121Z,32.70
2023-04-27T13:51:50.800Z,32.21
2023-04-27T13:54:17.504Z,32.70
2023-04-27T13:56:44.174Z,31.69
2023-04-27T13:59:10.850Z,34.34
2023-04-27T14:01:37.612Z,31.96
2023-04-27T14:04:04.747Z,31.71
2023-04-27T14:06:31.604Z,33.40
2023-04-27T14:08:58.211Z,31.56
2023-04-27T14:11:24.884Z,30.15
2023-04-27T14:13:51.629Z,31.91
2023-04-27T14:16:18.270Z,31.56
2023-04-27T14:18:44.896Z,32.67
2023-04-27T14:21:11.710Z,32.54
2023-04-27T14:23:38.428Z,30.66
2023-04-27T14:26:05.150Z,31.37
2023-04-27T14:28:31.828Z,33.65
2023-04-27T14:30:58.669Z,34.77
2023-04-27T14:33:25.472Z,32.68
2023-04-27T14:35:52.089Z,33.38
2023-04-27T14:38:18.690Z,33.29
2023-04-27T14:40:45.401Z,31.59
2023-04-27T14:43:12.053Z,33.77
2023-04-27T14:45:50.392Z,32.49
2023-04-27T14:48:19.595Z,33.36
2023-04-27T14:50:46.427Z,31.22
2023-04-27T14:53:13.224Z,31.38
2023-04-27T14:55:39.917Z,33.50
2023-04-27T14:58:06.562Z,32.14
2023-04-27T15:00:33.291Z,30.67
2023-04-27T15:03:00.089Z,30.45
2023-04-27T15:05:26.885Z,32.25
2023-04-27T15:07:53.537Z,33.72
2023-04-27T15:10:20.175Z,31.10
2023-04-27T15:12:46.997Z,31.15
2023-04-27T15:15:13.793Z,32.76
2023-04-27T15:17:40.543Z,32.62
2023-04-27T15:20:07.804Z,32.47
2023-04-27T15:22:34.578Z,31.07
2023-04-27T15:25:01.163Z,31.78
2023-04-27T15:27:27.811Z,30.77
2023-04-27T15:29:54.653Z,29.55
2023-04-27T15:32:21.536Z,31.38
2023-04-27T15:34:48.774Z,32.21
2023-04-27T15:37:15.462Z,31.06
2023-04-27T15:39:42.151Z,30.94
2023-04-27T15:42:08.936Z,30.16
2023-04-27T15:44:36.165Z,31.04
2023-04-27T15:47:02.928Z,32.02
2023-04-27T15:49:29.597Z,29.60
2023-04-27T15:51:56.341Z,31.86
2023-04-27T15:54:22.979Z,33.59
2023-04-27T15:56:49.585Z,32.42
2023-04-27T15:59:16.575Z,31.29
2023-04-27T16:01:43.461Z,31.10
2023-04-27T16:04:10.352Z,33.03
2023-04-27T16:06:37.202Z,33.48
2023-04-27T16:09:04.063Z,31.41
2023-04-27T16:11:31.629Z,31.72
2023-04-27T16:13:58.693Z,31.25
2023-04-27T16:16:25.439Z,32.55
2023-04-27T16:18:52.249Z,31.35
2023-04-27T16:21:18.860Z,30.66
2023-04-27T16:23:45.721Z,29.62
2023-04-27T16:26:12.333Z,30.66
2023-04-27T16:28:38.920Z,31.36
2023-04-27T16:31:05.578Z,31.31
2023-04-27T16:33:32.422Z,29.89
2023-04-27T16:35:59.138Z,32.26
2023-04-27T16:38:25.926Z,32.78
2023-04-27T16:40:52.594Z,32.30
2023-04-27T16:43:19.324Z,31.99
2023-04-27T16:45:46.101Z,33.07
2023-04-27T16:48:12.910Z,31.41
2023-04-27T16:50:39.742Z,33.28
2023-04-27T16:53:08.445Z,33.36
2023-04-27T16:55:35.791Z,33.91
2023-04-27T16:58:02.546Z,34.14
2023-04-27T17:00:29.347Z,34.19
2023-04-27T17:02:56.031Z,33.27
2023-04-27T17:05:22.876Z,34.75
2023-04-27T17:07:49.512Z,34.07
2023-04-27T17:10:16.246Z,35.38
2023-04-27T17:12:42.822Z,33.40
2023-04-27T17:15:10.997Z,33.15
2023-04-27T17:17:38.122Z,34.62
2023-04-27T17:20:05.375Z,34.00
2023-04-27T17:22:32.158Z,33.98
2023-04-27T17:24:58.925Z,35.90
2023-04-27T17:27:25.579Z,36.11
2023-04-27T17:29:54.244Z,36.24
2023-04-27T17:32:20.921Z,37.44
2023-04-27T17:34:47.733Z,37.13
2023-04-27T17:37:14.351Z,36.90
2023-04-27T17:39:40.936Z,37.69
2023-04-27T17:42:07.565Z,39.42
2023-04-27T17:44:34.187Z,38.16
2023-04-27T17:47:01.024Z,39.62
2023-04-27T17:49:27.751Z,39.35
2023-04-27T17:51:54.351Z,39.42
2023-04-27T17:54:21.107Z,41.84
2023-04-27T17:56:50.081Z,42.09
2023-04-27T17:59:17.134Z,41.70
2023-04-27T18:01:44.039Z,41.99
2023-04-27T18:04:10.891Z,42.38
2023-04-27T18:06:37.631Z,42.04
2023-04-27T18:09:04.443Z,42.69
2023-04-27T18:11:31.183Z,42.80
2023-04-27T18:13:57.890Z,43.04
2023-04-27T18:16:24.806Z,41.67
2023-04-27T18:18:51.417Z,41.38
2023-04-27T18:21:18.227Z,41.72
2023-04-27T18:23:45.071Z,42.40
2023-04-27T18:26:11.950Z,41.80
2023-04-27T18:28:38.608Z,42.33
2023-04-27T18:31:13.750Z,42.73
2023-04-27T18:33:40.357Z,43.08
2023-04-27T18:36:08.356Z,44.00
2023-04-27T18:38:35.106Z,44.29
2023-04-27T18:41:01.979Z,44.38
2023-04-27T18:43:28.740Z,43.40
2023-04-27T18:45:55.381Z,44.86
2023-04-27T18:48:22.070Z,44.68
2023-04-27T18:50:48.812Z,45.03
2023-04-27T18:53:15.588Z,45.83
2023-04-27T18:55:42.397Z,47.06
2023-04-27T18:58:09.119Z,48.08
2023-04-27T19:00:37.868Z,48.08
2023-04-27T19:03:05.795Z,45.73
2023-04-27T19:05:32.769Z,46.17
2023-04-27T19:07:59.555Z,47.88
2023-04-27T19:10:26.247Z,46.84
2023-04-27T19:12:53.109Z,46.62
2023-04-27T19:15:19.734Z,48.30
2023-04-27T19:17:52.568Z,47.82
2023-04-27T19:20:25.107Z,48.21
2023-04-27T19:22:51.911Z,48.47
2023-04-27T19:25:18.542Z,48.45
2023-04-27T19:27:45.196Z,47.78
2023-04-27T19:30:12.069Z,48.21
2023-04-27T19:32:38.880Z,48.46
2023-04-27T19:35:05.711Z,48.15
2023-04-27T19:37:32.325Z,49.69
2023-04-27T19:40:01.656Z,49.33
2023-04-27T19:42:28.284Z,48.67
2023-04-27T19:44:54.883Z,50.30
2023-04-27T19:47:21.631Z,50.28
2023-04-27T19:49:48.224Z,50.55
2023-04-27T19:52:14.866Z,49.72
2023-04-27T19:54:41.653Z,50.30
2023-04-27T19:57:08.309Z,50.76
2023-04-27T19:59:34.976Z,51.45
2023-04-27T20:02:01.644Z,51.40
2023-04-27T20:04:29.804Z,50.46
2023-04-27T20:06:56.914Z,50.74
2023-04-27T20:09:23.566Z,50.75
2023-04-27T20:11:50.250Z,51.14
2023-04-27T20:14:17.201Z,50.35
2023-04-27T20:16:44.378Z,51.68
2023-04-27T20:19:11.056Z,52.08
2023-04-27T20:21:37.932Z,50.46
2023-04-27T20:24:04.627Z,50.37
2023-04-27T20:26:31.242Z,50.59
2023-04-27T20:28:58.101Z,51.97
2023-04-27T20:31:24.738Z,52.43
2023-04-27T20:33:52.047Z,51.63
2023-04-27T20:36:18.718Z,52.34
2023-04-27T20:38:47.806Z,52.48
2023-04-27T20:41:14.659Z,51.98
2023-04-27T20:43:41.288Z,52.83
2023-04-27T20:46:10.698Z,53.25
2023-04-27T20:48:37.976Z,53.18
2023-04-27T20:51:05.069Z,54.17
2023-04-27T20:53:31.835Z,54.06
2023-04-27T20:55:58.534Z,53.58
2023-04-27T20:58:25.412Z,53.54
2023-04-27T21:00:52.129Z,54.38
2023-04-27T21:03:18.996Z,55.27
2023-04-27T21:05:45.803Z,55.31
2023-04-27T21:08:12.443Z,53.58
2023-04-27T21:10:39.045Z,55.53
2023-04-27T21:13:05.769Z,55.09
2023-04-27T21:15:32.604Z,54.90
2023-04-27T21:17:59.378Z,55.45
2023-04-27T21:20:26.427Z,53.75
2023-04-27T21:22:53.187Z,54.91
2023-04-27T21:25:20.668Z,56.08
2023-04-27T21:27:48.514Z,56.81
2023-04-27T21:30:15.460Z,55.92
2023-04-27T21:32:42.424Z,57.32
2023-04-27T21:35:09.667Z,56.59
2023-04-27T21:37:36.322Z,57.98
2023-04-27T21:40:03.209Z,58.20
2023-04-27T21:42:30.022Z,57.48
2023-04-27T21:44:59.042Z,57.78
2023-04-27T21:47:25.765Z,58.16
2023-04-27T21:49:52.766Z,58.44
2023-04-27T21:52:19.539Z,57.90
2023-04-27T21:54:46.200Z,58.28
2023-04-27T21:57:12.880Z,57.84
2023-04-27T21:59:39.588Z,59.07
2023-04-27T22:02:06.320Z,59.02
2023-04-27T22:04:39.163Z,59.72
2023-04-27T22:07:06.823Z,59.36
2023-04-27T22:09:33.611Z,59.89
2023-04-27T22:12:00.261Z,59.42
2023-04-27T22:14:26.915Z,60.27
2023-04-27T22:16:56.945Z,60.63
2023-04-27T22:19:24.640Z,60.26
2023-04-27T22:21:51.603Z,60.11
2023-04-27T22:24:18.479Z,60.60
2023-04-27T22:26:45.312Z,59.65
2023-04-27T22:29:11.994Z,60.39
2023-04-27T22:31:38.779Z,61.38
2023-04-27T22:34:05.751Z,61.50
2023-04-27T22:36:33.366Z,60.69
2023-04-27T22:39:00.285Z,61.76
2023-04-27T22:41:26.928Z,60.92
2023-04-27T22:43:53.570Z,60.32
2023-04-27T22:46:20.263Z,61.23
2023-04-27T22:48:46.985Z,62.29
2023-04-27T22:51:13.671Z,62.56
2023-04-27T22:53:40.396Z,61.88
2023-04-27T22:56:07.200Z,61.79
2023-04-27T22:58:33.937Z,62.11
2023-04-27T23:01:00.780Z,62.68
2023-04-27T23:03:27.580Z,62.20
2023-04-27T23:05:54.602Z,63.11
2023-04-27T23:08:21.747Z,62.57
2023-04-27T23:10:48.391Z,62.49
2023-04-27T23:13:15.089Z,62.70
2023-04-27T23:15:41.762Z,63.01
2023-04-27T23:18:08.652Z,64.96
2023-04-27T23:20:35.368Z,66.88
2023-04-27T23:23:02.043Z,68.96
2023-04-27T23:25:28.715Z,67.39
2023-04-27T23:27:55.344Z,70.45
2023-04-27T23:30:22.167Z,70.20
2023-04-27T23:32:48.895Z,69.29
2023-04-27T23:35:15.574Z,67.25
2023-04-27T23:37:42.645Z,66.52
2023-04-27T23:40:09.563Z,65.86
2023-04-27T23:42:36.209Z,66.91
2023-04-27T23:45:03.134Z,66.55
2023-04-27T23:47:29.875Z,66.35
2023-04-27T23:49:56.577Z,66.06
2023-04-27T23:52:23.212Z,65.63
2023-04-27T23:54:49.838Z,66.69
2023-04-27T23:57:16.467Z,66.95
2023-04-27T23:59:43.267Z,66.76
